Terminal Aerodrome Forecast
Issued by NWS

Home | Current Version | Previous Version | Text Only | Print | Product List | Glossary Off
Versions: 1 2 3 4 5 6 7 8 9 10 11 12 13 14 15 16 17

000
FTUS41 KCLE 272000 AAA
TAFFDY
TAF AMD
KFDY 272043Z 2721/2818 29012KT P6SM -SHSN OVC025
      TEMPO 2721/2801 2SM -SHSN OVC015
     FM280300 29008KT P6SM OVC035
     FM280700 27006KT P6SM SCT035
     FM281200 22006KT P6SM BKN200=

USA.gov is the U.S. government's official web portal to all federal, state and local government web resources and services.